Maran Hercules — SVCQ3 — position and weather

sailwx.info

Track history (hours):
 
Tides and Currents Weather Stations Pressure Air Temp Water Temp Dewpoint Dewpoint Depression Visibility Wind Speed Wind Dir Waves Ship Positions

Maran Hercules

Last reported at 2018-Feb-19 11:34 UTC. Time now 2018-Feb-25 20:00 UTC.
Position N 44°21' E 037°13'.

Length 274 m; draft 15.6 m.

Type: Tanker. MMSI: 241517000.

Date/timePositionNaut miles runAvg speedWind from/ knotsBaromVisibWave heightAir tempDewpointWater temp
2018-Feb-19 11:34N 44°21' E 037°13'111.5
2018-Feb-19 11:27N 44°22' E 037°14'511.5
2018-Feb-19 11:00N 44°24' E 037°21'611.5
2018-Feb-19 10:30N 44°26' E 037°28'611.4
2018-Feb-19 10:00N 44°29' E 037°35'5 9.8
2018-Feb-19 09:30N 44°33' E 037°40'3 5.6
2018-Feb-19 09:00N 44°35' E 037°41'1 1.8
2018-Feb-19 08:30N 44°36' E 037°43'0 0.5
2018-Feb-19 08:00N 44°36' E 037°43'0 0.5
2018-Feb-19 07:30N 44°36' E 037°43'0 0.5
2018-Feb-19 07:00N 44°36' E 037°44'0 0.5
2018-Feb-19 06:30N 44°36' E 037°44'0 0.5
2018-Feb-19 06:00N 44°36' E 037°44'0 0.6
2018-Feb-19 05:30N 44°36' E 037°45'0 0.6
2018-Feb-19 05:00N 44°36' E 037°45'0 0.8
2018-Feb-19 04:30N 44°36' E 037°45'4 7.5
2018-Feb-19 04:00N 44°36' E 037°40'2 0.1
2018-Feb-18 07:45N 44°38' E 037°38'0 1.0
2018-Feb-18 07:30N 44°37' E 037°38'2 3.5
2018-Feb-18 07:00N 44°36' E 037°37'2 3.6
2018-Feb-18 06:30N 44°34' E 037°36'1 2.3
2018-Feb-18 06:00N 44°35' E 037°37'1 2.6
2018-Feb-18 05:30N 44°36' E 037°38'2 4.7
2018-Feb-18 05:00N 44°34' E 037°37'2 3.1
2018-Feb-18 04:30N 44°34' E 037°34'2 3.2
2018-Feb-18 04:00N 44°35' E 037°32'2 3.7
2018-Feb-18 03:30N 44°35' E 037°30'2 4.8
2018-Feb-18 02:59N 44°36' E 037°26'2 4.5
2018-Feb-18 02:30N 44°36' E 037°23'2 4.4
2018-Feb-18 01:58N 44°37' E 037°20'3 0.4
2018-Feb-17 17:36N 44°37' E 037°24'1 7.2
2018-Feb-17 17:29N 44°36' E 037°25'1 1.1
2018-Feb-17 16:30N 44°37' E 037°26'0 0.5
2018-Feb-17 16:00N 44°37' E 037°26'0 0.5
2018-Feb-17 15:13N 44°37' E 037°26'1 0.2
2018-Feb-17 12:43N 44°38' E 037°26'0 0.7
2018-Feb-17 12:30N 44°38' E 037°26'0 0.7
2018-Feb-17 11:58N 44°38' E 037°27'1 1.2
2018-Feb-17 11:30N 44°37' E 037°27'1 2.9
2018-Feb-17 11:00N 44°37' E 037°29'510.3
2018-Feb-17 10:30N 44°35' E 037°36'5 9.8
2018-Feb-17 10:00N 44°35' E 037°43'1 1.7
2018-Feb-17 09:30N 44°36' E 037°42'2 3.3
2018-Feb-17 09:00N 44°36' E 037°40'1 2.8
2018-Feb-17 08:30N 44°36' E 037°38'2 4.4
2018-Feb-17 08:00N 44°36' E 037°35'3 6.2
2018-Feb-17 07:30N 44°37' E 037°30'3 6.3
2018-Feb-17 07:00N 44°38' E 037°26'1 0.2
2018-Feb-17 02:58N 44°38' E 037°25'0 0.4
2018-Feb-17 02:25N 44°37' E 037°25'0 0.3
2018-Feb-17 02:00N 44°37' E 037°25'0 0.1
2018-Feb-16 23:06N 44°37' E 037°25'0 0.1
2018-Feb-16 22:54N 44°37' E 037°25'0 0.1
2018-Feb-16 22:25N 44°37' E 037°25'0 0.2
2018-Feb-16 21:58N 44°37' E 037°25'0 0.2
2018-Feb-16 21:30N 44°37' E 037°25'0 0.1
2018-Feb-16 21:00N 44°38' E 037°25'0 0.3
2018-Feb-16 20:21N 44°38' E 037°25'0 0.2
2018-Feb-16 19:41N 44°38' E 037°25'0 0.1
2018-Feb-16 18:59N 44°38' E 037°25'1 0.3
2018-Feb-16 15:04N 44°39' E 037°25'0 0.3
2018-Feb-16 15:00N 44°39' E 037°25'0 0.4
2018-Feb-16 14:27N 44°39' E 037°24'0 0.4
2018-Feb-16 14:00N 44°39' E 037°24'0 0.4
2018-Feb-16 13:30N 44°39' E 037°24'0 0.5
2018-Feb-16 13:00N 44°39' E 037°24'2 0.1
2018-Feb-14 17:02N 44°38' E 037°26'011.9
2018-Feb-14 17:00N 44°38' E 037°26'2 3.6
2018-Feb-14 16:24N 44°36' E 037°27'1 1.1
2018-Feb-14 15:56N 44°36' E 037°27'1 1.5
2018-Feb-14 15:30N 44°37' E 037°27'2 4.2
2018-Feb-14 14:59N 44°38' E 037°25'3 0.3
2018-Feb-14 07:18N 44°40' E 037°22'0 0.7
2018-Feb-14 06:56N 44°40' E 037°23'0 0.6
2018-Feb-14 06:29N 44°40' E 037°23'0 0.6
2018-Feb-14 05:58N 44°40' E 037°23'0 0.4
2018-Feb-14 05:29N 44°40' E 037°23'0 0.3
2018-Feb-14 05:00N 44°39' E 037°24'0 0.3
2018-Feb-14 04:30N 44°39' E 037°23'0 0.4
2018-Feb-14 03:44N 44°39' E 037°24'2 1.2
2018-Feb-14 02:20N 44°38' E 037°26'2 5.1
2018-Feb-14 02:00N 44°37' E 037°27'4 8.2
2018-Feb-14 01:30N 44°36' E 037°33'510.5
2018-Feb-14 01:00N 44°35' E 037°40'3 6.2
2018-Feb-14 00:30N 44°34' E 037°44'0 0.4
2018-Feb-14 00:00N 44°34' E 037°44'0 0.4
2018-Feb-13 23:30N 44°34' E 037°44'0 0.3
2018-Feb-13 23:00N 44°34' E 037°44'0 0.8
2018-Feb-13 22:30N 44°34' E 037°44'1 2.5
2018-Feb-13 22:00N 44°33' E 037°43'3 5.6
2018-Feb-13 21:30N 44°30' E 037°43'4 8.8
2018-Feb-13 21:00N 44°26' E 037°43'5 9.8
2018-Feb-13 20:30N 44°21' E 037°44'0 0.9
2018-Feb-13 20:00N 44°21' E 037°43'0 0.6
2018-Feb-13 19:30N 44°21' E 037°43'0 0.6
2018-Feb-13 19:00N 44°21' E 037°43'0 0.6
2018-Feb-13 18:30N 44°21' E 037°42'0 0.5
2018-Feb-13 18:00N 44°21' E 037°42'0 0.5
2018-Feb-13 17:30N 44°22' E 037°42'0 0.4
2018-Feb-13 17:00N 44°22' E 037°41'0 0.4
2018-Feb-13 16:30N 44°22' E 037°41'0 0.5
2018-Feb-13 16:00N 44°22' E 037°41'0 0.5
2018-Feb-13 15:30N 44°22' E 037°40'0 0.5
2018-Feb-13 15:00N 44°22' E 037°40'0 0.5
2018-Feb-13 14:30N 44°22' E 037°40'0 0.5
2018-Feb-13 14:00N 44°22' E 037°39'0 0.5
2018-Feb-13 13:30N 44°22' E 037°39'0 0.6
2018-Feb-13 13:00N 44°22' E 037°39'0 0.7
2018-Feb-13 12:29N 44°22' E 037°38'2141.0
2018-Feb-13 11:59N 44°35' E 038°01'0 0.0
2018-Feb-13 11:22N 44°36' E 038°01'2259.3
2018-Feb-13 10:59N 44°22' E 037°36'1 1.1
2018-Feb-13 10:31N 44°22' E 037°36'1 1.1
2018-Feb-13 10:00N 44°22' E 037°35'2 4.5
2018-Feb-13 09:30N 44°22' E 037°32'5 9.3
2018-Feb-13 09:00N 44°23' E 037°25'3 6.7
2018-Feb-13 08:30N 44°23' E 037°21'3 5.3
2018-Feb-13 08:00N 44°22' E 037°17'3 6.9
2018-Feb-13 07:29N 44°20' E 037°13'3 6.8
2018-Feb-13 07:00N 44°19' E 037°09'410 9.4
2018-Feb-11 11:22N 41°01' E 028°60'3 8.1
2018-Feb-11 11:00N 40°58' E 028°60'3 6.1
2018-Feb-11 10:30N 40°55' E 028°59'3 5.3
2018-Feb-11 10:00N 40°53' E 028°56'4 7.3
2018-Feb-11 09:30N 40°51' E 028°52'3 6.9
2018-Feb-11 09:00N 40°50' E 028°48'3 5.1
2018-Feb-11 08:30N 40°48' E 028°46'3 3.6
2018-Feb-11 07:43N 40°46' E 028°43'4 0.6
2018-Feb-10 23:58N 40°47' E 028°37'6 1.7
2018-Feb-10 20:26N 40°48' E 028°45'  
Track history (hours):
 
Tides and Currents Weather Stations Pressure Air Temp Water Temp Dewpoint Dewpoint Depression Visibility Wind Speed Wind Dir Waves Ship Positions

Maran Hercules

Last reported at 2018-Feb-19 11:34 UTC. Time now 2018-Feb-25 20:00 UTC.
Position N 44°21' E 037°13'.

Length 274 m; draft 15.6 m.

Type: Tanker. MMSI: 241517000.

Date/timePositionNaut miles runAvg speedWind from/ knotsBaromVisibWave heightAir tempDewpointWater temp
2018-Feb-19 11:34N 44°21' E 037°13'111.5
2018-Feb-19 11:27N 44°22' E 037°14'511.5
2018-Feb-19 11:00N 44°24' E 037°21'611.5
2018-Feb-19 10:30N 44°26' E 037°28'611.4
2018-Feb-19 10:00N 44°29' E 037°35'5 9.8
2018-Feb-19 09:30N 44°33' E 037°40'3 5.6
2018-Feb-19 09:00N 44°35' E 037°41'1 1.8
2018-Feb-19 08:30N 44°36' E 037°43'0 0.5
2018-Feb-19 08:00N 44°36' E 037°43'0 0.5
2018-Feb-19 07:30N 44°36' E 037°43'0 0.5
2018-Feb-19 07:00N 44°36' E 037°44'0 0.5
2018-Feb-19 06:30N 44°36' E 037°44'0 0.5
2018-Feb-19 06:00N 44°36' E 037°44'0 0.6
2018-Feb-19 05:30N 44°36' E 037°45'0 0.6
2018-Feb-19 05:00N 44°36' E 037°45'0 0.8
2018-Feb-19 04:30N 44°36' E 037°45'4 7.5
2018-Feb-19 04:00N 44°36' E 037°40'2 0.1
2018-Feb-18 07:45N 44°38' E 037°38'0 1.0
2018-Feb-18 07:30N 44°37' E 037°38'2 3.5
2018-Feb-18 07:00N 44°36' E 037°37'2 3.6
2018-Feb-18 06:30N 44°34' E 037°36'1 2.3
2018-Feb-18 06:00N 44°35' E 037°37'1 2.6
2018-Feb-18 05:30N 44°36' E 037°38'2 4.7
2018-Feb-18 05:00N 44°34' E 037°37'2 3.1
2018-Feb-18 04:30N 44°34' E 037°34'2 3.2
2018-Feb-18 04:00N 44°35' E 037°32'2 3.7
2018-Feb-18 03:30N 44°35' E 037°30'2 4.8
2018-Feb-18 02:59N 44°36' E 037°26'2 4.5
2018-Feb-18 02:30N 44°36' E 037°23'2 4.4
2018-Feb-18 01:58N 44°37' E 037°20'3 0.4
2018-Feb-17 17:36N 44°37' E 037°24'1 7.2
2018-Feb-17 17:29N 44°36' E 037°25'1 1.1
2018-Feb-17 16:30N 44°37' E 037°26'0 0.5
2018-Feb-17 16:00N 44°37' E 037°26'0 0.5
2018-Feb-17 15:13N 44°37' E 037°26'1 0.2
2018-Feb-17 12:43N 44°38' E 037°26'0 0.7
2018-Feb-17 12:30N 44°38' E 037°26'0 0.7
2018-Feb-17 11:58N 44°38' E 037°27'1 1.2
2018-Feb-17 11:30N 44°37' E 037°27'1 2.9
2018-Feb-17 11:00N 44°37' E 037°29'510.3
2018-Feb-17 10:30N 44°35' E 037°36'5 9.8
2018-Feb-17 10:00N 44°35' E 037°43'1 1.7
2018-Feb-17 09:30N 44°36' E 037°42'2 3.3
2018-Feb-17 09:00N 44°36' E 037°40'1 2.8
2018-Feb-17 08:30N 44°36' E 037°38'2 4.4
2018-Feb-17 08:00N 44°36' E 037°35'3 6.2
2018-Feb-17 07:30N 44°37' E 037°30'3 6.3
2018-Feb-17 07:00N 44°38' E 037°26'1 0.2
2018-Feb-17 02:58N 44°38' E 037°25'0 0.4
2018-Feb-17 02:25N 44°37' E 037°25'0 0.3
2018-Feb-17 02:00N 44°37' E 037°25'0 0.1
2018-Feb-16 23:06N 44°37' E 037°25'0 0.1
2018-Feb-16 22:54N 44°37' E 037°25'0 0.1
2018-Feb-16 22:25N 44°37' E 037°25'0 0.2
2018-Feb-16 21:58N 44°37' E 037°25'0 0.2
2018-Feb-16 21:30N 44°37' E 037°25'0 0.1
2018-Feb-16 21:00N 44°38' E 037°25'0 0.3
2018-Feb-16 20:21N 44°38' E 037°25'0 0.2
2018-Feb-16 19:41N 44°38' E 037°25'0 0.1
2018-Feb-16 18:59N 44°38' E 037°25'1 0.3
2018-Feb-16 15:04N 44°39' E 037°25'0 0.3
2018-Feb-16 15:00N 44°39' E 037°25'0 0.4
2018-Feb-16 14:27N 44°39' E 037°24'0 0.4
2018-Feb-16 14:00N 44°39' E 037°24'0 0.4
2018-Feb-16 13:30N 44°39' E 037°24'0 0.5
2018-Feb-16 13:00N 44°39' E 037°24'2 0.1
2018-Feb-14 17:02N 44°38' E 037°26'011.9
2018-Feb-14 17:00N 44°38' E 037°26'2 3.6
2018-Feb-14 16:24N 44°36' E 037°27'1 1.1
2018-Feb-14 15:56N 44°36' E 037°27'1 1.5
2018-Feb-14 15:30N 44°37' E 037°27'2 4.2
2018-Feb-14 14:59N 44°38' E 037°25'3 0.3
2018-Feb-14 07:18N 44°40' E 037°22'0 0.7
2018-Feb-14 06:56N 44°40' E 037°23'0 0.6
2018-Feb-14 06:29N 44°40' E 037°23'0 0.6
2018-Feb-14 05:58N 44°40' E 037°23'0 0.4
2018-Feb-14 05:29N 44°40' E 037°23'0 0.3
2018-Feb-14 05:00N 44°39' E 037°24'0 0.3
2018-Feb-14 04:30N 44°39' E 037°23'0 0.4
2018-Feb-14 03:44N 44°39' E 037°24'2 1.2
2018-Feb-14 02:20N 44°38' E 037°26'2 5.1
2018-Feb-14 02:00N 44°37' E 037°27'4 8.2
2018-Feb-14 01:30N 44°36' E 037°33'510.5
2018-Feb-14 01:00N 44°35' E 037°40'3 6.2
2018-Feb-14 00:30N 44°34' E 037°44'0 0.4
2018-Feb-14 00:00N 44°34' E 037°44'0 0.4
2018-Feb-13 23:30N 44°34' E 037°44'0 0.3
2018-Feb-13 23:00N 44°34' E 037°44'0 0.8
2018-Feb-13 22:30N 44°34' E 037°44'1 2.5
2018-Feb-13 22:00N 44°33' E 037°43'3 5.6
2018-Feb-13 21:30N 44°30' E 037°43'4 8.8
2018-Feb-13 21:00N 44°26' E 037°43'5 9.8
2018-Feb-13 20:30N 44°21' E 037°44'0 0.9
2018-Feb-13 20:00N 44°21' E 037°43'0 0.6
2018-Feb-13 19:30N 44°21' E 037°43'0 0.6
2018-Feb-13 19:00N 44°21' E 037°43'0 0.6
2018-Feb-13 18:30N 44°21' E 037°42'0 0.5
2018-Feb-13 18:00N 44°21' E 037°42'0 0.5
2018-Feb-13 17:30N 44°22' E 037°42'0 0.4
2018-Feb-13 17:00N 44°22' E 037°41'0 0.4
2018-Feb-13 16:30N 44°22' E 037°41'0 0.5
2018-Feb-13 16:00N 44°22' E 037°41'0 0.5
2018-Feb-13 15:30N 44°22' E 037°40'0 0.5
2018-Feb-13 15:00N 44°22' E 037°40'0 0.5
2018-Feb-13 14:30N 44°22' E 037°40'0 0.5
2018-Feb-13 14:00N 44°22' E 037°39'0 0.5
2018-Feb-13 13:30N 44°22' E 037°39'0 0.6
2018-Feb-13 13:00N 44°22' E 037°39'0 0.7
2018-Feb-13 12:29N 44°22' E 037°38'2141.0
2018-Feb-13 11:59N 44°35' E 038°01'0 0.0
2018-Feb-13 11:22N 44°36' E 038°01'2259.3
2018-Feb-13 10:59N 44°22' E 037°36'1 1.1
2018-Feb-13 10:31N 44°22' E 037°36'1 1.1
2018-Feb-13 10:00N 44°22' E 037°35'2 4.5
2018-Feb-13 09:30N 44°22' E 037°32'5 9.3
2018-Feb-13 09:00N 44°23' E 037°25'3 6.7
2018-Feb-13 08:30N 44°23' E 037°21'3 5.3
2018-Feb-13 08:00N 44°22' E 037°17'3 6.9
2018-Feb-13 07:29N 44°20' E 037°13'3 6.8
2018-Feb-13 07:00N 44°19' E 037°09'410 9.4
2018-Feb-11 11:22N 41°01' E 028°60'3 8.1
2018-Feb-11 11:00N 40°58' E 028°60'3 6.1
2018-Feb-11 10:30N 40°55' E 028°59'3 5.3
2018-Feb-11 10:00N 40°53' E 028°56'4 7.3
2018-Feb-11 09:30N 40°51' E 028°52'3 6.9
2018-Feb-11 09:00N 40°50' E 028°48'3 5.1
2018-Feb-11 08:30N 40°48' E 028°46'3 3.6
2018-Feb-11 07:43N 40°46' E 028°43'4 0.6
2018-Feb-10 23:58N 40°47' E 028°37'6 1.7
2018-Feb-10 20:26N 40°48' E 028°45'  

Dump ship's entire track history